createdAt,value
2022-08-28T00:01:12.259Z,93328.69
2022-08-28T00:03:43.669Z,93322.81
2022-08-28T00:06:12.671Z,93331.50
2022-08-28T00:08:43.015Z,93325.84
2022-08-28T00:11:10.488Z,93328.91
2022-08-28T00:13:38.373Z,93333.09
2022-08-28T00:16:06.518Z,93335.75
2022-08-28T00:18:34.064Z,93339.09
2022-08-28T00:21:01.858Z,93339.69
2022-08-28T00:23:42.353Z,93335.47
2022-08-28T00:26:32.427Z,93334.97
2022-08-28T00:29:00.264Z,93337.03
2022-08-28T00:31:27.900Z,93329.44
2022-08-28T00:33:55.238Z,93329.28
2022-08-28T00:36:24.077Z,93323.87
2022-08-28T00:38:51.432Z,93331.34
2022-08-28T00:41:18.761Z,93325.34
2022-08-28T00:44:16.353Z,93328.97
2022-08-28T00:46:46.056Z,93330.63
2022-08-28T00:49:17.220Z,93328.19
2022-08-28T00:52:03.855Z,93327.34
2022-08-28T00:54:35.300Z,93333.50
2022-08-28T00:57:06.854Z,93325.84
2022-08-28T00:59:35.010Z,93329.91
2022-08-28T01:02:02.533Z,93325.72
2022-08-28T01:04:32.520Z,93324.91
2022-08-28T01:07:05.466Z,93328.84
2022-08-28T01:09:35.610Z,93330.50
2022-08-28T01:12:08.470Z,93329.19
2022-08-28T01:14:39.328Z,93334.72
2022-08-28T01:17:08.894Z,93336.00
2022-08-28T01:19:40.544Z,93332.59
2022-08-28T01:22:37.029Z,93334.16
2022-08-28T01:25:14.540Z,93331.53
2022-08-28T01:27:42.900Z,93336.06
2022-08-28T01:30:16.405Z,93328.44
2022-08-28T01:32:49.815Z,93331.84
2022-08-28T01:35:20.572Z,93333.97
2022-08-28T01:37:48.781Z,93333.94
2022-08-28T01:40:23.062Z,93332.09
2022-08-28T01:42:50.966Z,93328.44
2022-08-28T01:45:20.739Z,93322.91
2022-08-28T01:47:48.813Z,93325.03
2022-08-28T01:50:21.089Z,93322.13
2022-08-28T01:52:48.203Z,93320.28
2022-08-28T01:55:16.026Z,93328.44
2022-08-28T01:57:51.370Z,93326.34
2022-08-28T02:00:19.022Z,93324.00
2022-08-28T02:02:48.564Z,93331.13
2022-08-28T02:05:15.892Z,93339.03
2022-08-28T02:07:43.217Z,93326.94
2022-08-28T02:10:12.158Z,93333.81
2022-08-28T02:12:39.557Z,93330.38
2022-08-28T02:15:08.112Z,93332.75
2022-08-28T02:17:35.892Z,93329.59
2022-08-28T02:20:05.673Z,93328.28
2022-08-28T02:22:33.754Z,93334.09
2022-08-28T02:25:02.262Z,93333.00
2022-08-28T02:27:29.859Z,93333.56
2022-08-28T02:29:58.912Z,93336.44
2022-08-28T02:32:27.043Z,93332.75
2022-08-28T02:34:54.898Z,93332.22
2022-08-28T02:37:23.696Z,93331.19
2022-08-28T02:39:55.372Z,93334.06
2022-08-28T02:42:23.105Z,93337.22
2022-08-28T02:44:51.009Z,93330.66
2022-08-28T02:47:21.552Z,93330.63
2022-08-28T02:49:49.163Z,93333.03
2022-08-28T02:52:18.288Z,93337.50
2022-08-28T02:54:46.963Z,93329.88
2022-08-28T02:57:14.444Z,93326.69
2022-08-28T02:59:43.586Z,93329.59
2022-08-28T03:02:11.214Z,93335.41
2022-08-28T03:04:39.225Z,93336.72
2022-08-28T03:07:13.675Z,93340.66
2022-08-28T03:09:41.842Z,93344.34
2022-08-28T03:12:10.937Z,93342.78
2022-08-28T03:14:38.351Z,93342.25
2022-08-28T03:17:07.639Z,93342.22
2022-08-28T03:19:35.891Z,93335.12
2022-08-28T03:22:03.331Z,93345.94
2022-08-28T03:24:30.734Z,93345.69
2022-08-28T03:26:58.647Z,93340.41
2022-08-28T03:29:26.029Z,93348.03
2022-08-28T03:31:53.532Z,93345.88
2022-08-28T03:34:21.347Z,93346.97
2022-08-28T03:36:48.735Z,93350.66
2022-08-28T03:39:16.143Z,93345.09
2022-08-28T03:41:43.874Z,93348.75
2022-08-28T03:44:11.178Z,93353.25
2022-08-28T03:46:39.158Z,93354.84
2022-08-28T03:49:06.887Z,93356.41
2022-08-28T03:51:35.339Z,93365.94
2022-08-28T03:54:03.623Z,93366.50
2022-08-28T03:56:31.959Z,93358.25
2022-08-28T03:59:02.563Z,93364.31
2022-08-28T04:01:30.022Z,93369.53
2022-08-28T04:03:57.803Z,93372.72
2022-08-28T04:06:25.412Z,93367.22
2022-08-28T04:08:52.771Z,93368.28
2022-08-28T04:11:20.792Z,93376.97
2022-08-28T04:13:48.273Z,93376.50
2022-08-28T04:16:19.189Z,93372.81
2022-08-28T04:18:49.384Z,93381.75
2022-08-28T04:21:20.374Z,93376.41
2022-08-28T04:23:48.549Z,93380.13
2022-08-28T04:26:19.920Z,93387.03
2022-08-28T04:28:48.461Z,93381.41
2022-08-28T04:31:17.251Z,93381.94
2022-08-28T04:33:45.854Z,93387.50
2022-08-28T04:36:16.932Z,93390.41
2022-08-28T04:38:44.645Z,93397.47
2022-08-28T04:41:14.749Z,93395.41
2022-08-28T04:43:43.588Z,93400.13
2022-08-28T04:46:13.876Z,93397.81
2022-08-28T04:48:42.415Z,93399.72
2022-08-28T04:51:12.449Z,93402.84
2022-08-28T04:53:40.109Z,93407.63
2022-08-28T04:56:10.202Z,93407.59
2022-08-28T04:58:38.858Z,93406.44
2022-08-28T05:01:08.801Z,93400.50
2022-08-28T05:03:36.748Z,93404.06
2022-08-28T05:06:05.032Z,93415.81
2022-08-28T05:08:32.947Z,93406.78
2022-08-28T05:11:14.465Z,93404.19
2022-08-28T05:14:04.775Z,93410.28
2022-08-28T05:16:34.794Z,93417.78
2022-08-28T05:19:03.274Z,93419.66
2022-08-28T05:21:30.689Z,93419.44
2022-08-28T05:23:59.322Z,93419.97
2022-08-28T05:26:29.661Z,93412.12
2022-08-28T05:28:59.507Z,93418.69
2022-08-28T05:31:27.577Z,93412.66
2022-08-28T05:33:55.603Z,93411.88
2022-08-28T05:36:25.929Z,93414.78
2022-08-28T05:39:02.350Z,93420.03
2022-08-28T05:41:31.586Z,93419.75
2022-08-28T05:44:05.596Z,93421.06
2022-08-28T05:46:33.689Z,93416.78
2022-08-28T05:49:01.079Z,93416.97
2022-08-28T05:51:28.837Z,93413.47
2022-08-28T05:53:57.931Z,93414.63
2022-08-28T05:56:30.065Z,93410.53
2022-08-28T05:59:00.219Z,93409.22
2022-08-28T06:01:29.934Z,93407.63
2022-08-28T06:04:00.955Z,93407.22
2022-08-28T06:06:31.469Z,93402.31
2022-08-28T06:09:29.024Z,93403.41
2022-08-28T06:11:59.418Z,93400.37
2022-08-28T06:14:27.668Z,93402.59
2022-08-28T06:16:56.884Z,93400.44
2022-08-28T06:19:27.053Z,93400.25
2022-08-28T06:22:00.624Z,93399.81
2022-08-28T06:24:30.436Z,93402.69
2022-08-28T06:26:59.741Z,93400.72
2022-08-28T06:29:28.052Z,93395.03
2022-08-28T06:31:58.704Z,93395.56
2022-08-28T06:34:27.640Z,93388.81
2022-08-28T06:36:55.786Z,93397.66
2022-08-28T06:39:23.882Z,93396.34
2022-08-28T06:41:52.583Z,93394.63
2022-08-28T06:44:21.589Z,93395.47
2022-08-28T06:46:51.625Z,93398.94
2022-08-28T06:49:19.740Z,93397.53
2022-08-28T06:51:47.135Z,93396.19
2022-08-28T06:54:22.211Z,93392.56
2022-08-28T06:56:54.380Z,93387.25
2022-08-28T06:59:21.861Z,93384.19
2022-08-28T07:01:49.570Z,93391.56
2022-08-28T07:04:17.477Z,93391.25
2022-08-28T07:06:47.143Z,93390.19
2022-08-28T07:09:15.860Z,93385.44
2022-08-28T07:11:46.904Z,93379.72
2022-08-28T07:14:14.321Z,93383.16
2022-08-28T07:16:41.972Z,93379.84
2022-08-28T07:19:12.889Z,93381.31
2022-08-28T07:21:43.156Z,93383.69
2022-08-28T07:24:14.879Z,93381.81
2022-08-28T07:26:43.809Z,93376.56
2022-08-28T07:29:12.246Z,93375.75
2022-08-28T07:31:45.542Z,93371.13
2022-08-28T07:34:14.297Z,93378.88
2022-08-28T07:36:42.742Z,93375.16
2022-08-28T07:39:12.095Z,93374.22
2022-08-28T07:41:43.106Z,93372.69
2022-08-28T07:44:31.536Z,93368.09
2022-08-28T07:47:04.347Z,93363.84
2022-08-28T07:49:33.990Z,93364.59
2022-08-28T07:52:03.036Z,93358.75
2022-08-28T07:54:30.313Z,93360.59
2022-08-28T07:56:57.743Z,93352.97
2022-08-28T07:59:25.371Z,93358.12
2022-08-28T08:01:53.672Z,93362.50
2022-08-28T08:04:23.011Z,93354.56
2022-08-28T08:06:57.014Z,93347.53
2022-08-28T08:09:27.236Z,93342.19
2022-08-28T08:11:56.861Z,93345.69
2022-08-28T08:14:25.174Z,93352.88
2022-08-28T08:16:53.830Z,93343.00
2022-08-28T08:19:21.662Z,93340.25
2022-08-28T08:21:54.912Z,93339.97
2022-08-28T08:24:28.659Z,93341.38
2022-08-28T08:27:00.804Z,93337.66
2022-08-28T08:29:36.054Z,93335.41
2022-08-28T08:32:07.284Z,93337.41
2022-08-28T08:34:38.883Z,93338.59
2022-08-28T08:37:07.175Z,93334.50
2022-08-28T08:39:36.559Z,93328.91
2022-08-28T08:42:09.013Z,93337.00
2022-08-28T08:44:42.538Z,93335.16
2022-08-28T08:47:24.861Z,93330.38
2022-08-28T08:50:17.165Z,93333.13
2022-08-28T08:52:44.504Z,93330.84
2022-08-28T08:55:32.243Z,93335.97
2022-08-28T08:58:06.828Z,93334.84
2022-08-28T09:00:59.300Z,93328.34
2022-08-28T09:03:55.130Z,93326.66
2022-08-28T09:06:52.713Z,93325.78
2022-08-28T09:09:41.118Z,93325.88
2022-08-28T09:12:17.408Z,93329.31
2022-08-28T09:15:10.380Z,93322.09
2022-08-28T09:17:51.680Z,93322.69
2022-08-28T09:20:32.312Z,93324.50
2022-08-28T09:23:02.094Z,93321.06
2022-08-28T09:25:44.754Z,93319.50
2022-08-28T09:28:18.672Z,93320.91
2022-08-28T09:30:59.693Z,93322.81
2022-08-28T09:33:37.651Z,93318.84
2022-08-28T09:36:37.125Z,93315.94
2022-08-28T09:39:17.692Z,93322.66
2022-08-28T09:42:37.028Z,93315.16
2022-08-28T09:45:21.946Z,93307.47
2022-08-28T09:47:52.924Z,93308.44
2022-08-28T09:50:32.859Z,93309.63
2022-08-28T09:53:22.063Z,93302.06
2022-08-28T09:56:08.427Z,93308.22
2022-08-28T09:58:39.528Z,93308.59
2022-08-28T10:01:24.767Z,93301.69
2022-08-28T10:04:11.648Z,93303.34
2022-08-28T10:06:40.402Z,93299.75
2022-08-28T10:09:31.819Z,93289.62
2022-08-28T10:12:37.885Z,93300.75
2022-08-28T10:15:18.241Z,93288.84
2022-08-28T10:18:14.449Z,93293.34
2022-08-28T10:20:56.628Z,93292.25
2022-08-28T10:23:42.685Z,93288.63
2022-08-28T10:26:16.304Z,93284.81
2022-08-28T10:28:49.653Z,93293.37
2022-08-28T10:31:25.784Z,93292.84
2022-08-28T10:34:16.479Z,93286.72
2022-08-28T10:36:50.250Z,93288.31
2022-08-28T10:39:34.983Z,93291.09
2022-08-28T10:42:06.166Z,93282.81
2022-08-28T10:44:49.996Z,93279.59
2022-08-28T10:47:20.350Z,93278.25
2022-08-28T10:49:53.540Z,93286.87
2022-08-28T10:52:32.733Z,93278.94
2022-08-28T10:55:21.780Z,93281.25
2022-08-28T10:57:57.808Z,93280.44
2022-08-28T11:00:27.670Z,93283.56
2022-08-28T11:03:03.068Z,93279.84
2022-08-28T11:05:39.682Z,93274.75
2022-08-28T11:08:26.357Z,93282.22
2022-08-28T11:10:55.698Z,93280.16
2022-08-28T11:13:41.469Z,93280.19
2022-08-28T11:16:18.950Z,93275.53
2022-08-28T11:19:10.119Z,93286.97
2022-08-28T11:22:09.980Z,93276.25
2022-08-28T11:24:47.734Z,93280.81
2022-08-28T11:27:19.519Z,93273.88
2022-08-28T11:30:26.106Z,93271.22
2022-08-28T11:32:53.625Z,93276.88
2022-08-28T11:35:21.310Z,93269.78
2022-08-28T11:37:55.069Z,93264.03
2022-08-28T11:40:48.507Z,93266.62
2022-08-28T11:43:16.505Z,93265.38
2022-08-28T11:45:47.698Z,93265.06
2022-08-28T11:48:39.895Z,93264.69
2022-08-28T11:51:33.160Z,93263.87
2022-08-28T11:54:21.039Z,93261.75
2022-08-28T11:57:08.030Z,93260.19
2022-08-28T11:59:55.306Z,93249.16
2022-08-28T12:02:39.312Z,93254.87
2022-08-28T12:05:30.434Z,93247.09
2022-08-28T12:07:59.754Z,93256.69
2022-08-28T12:10:30.977Z,93249.56
2022-08-28T12:13:01.078Z,93242.84
2022-08-28T12:15:28.920Z,93246.13
2022-08-28T12:18:36.707Z,93244.62
2022-08-28T12:21:08.710Z,93250.13
2022-08-28T12:23:40.568Z,93249.03
2022-08-28T12:26:24.385Z,93247.84
2022-08-28T12:29:03.038Z,93243.91
2022-08-28T12:32:12.846Z,93246.69
2022-08-28T12:34:58.855Z,93250.25
2022-08-28T12:37:43.979Z,93239.41
2022-08-28T12:40:38.274Z,93242.78
2022-08-28T12:43:11.510Z,93234.72
2022-08-28T12:45:57.195Z,93240.09
2022-08-28T12:48:27.883Z,93243.41
2022-08-28T12:51:08.122Z,93237.56
2022-08-28T12:53:43.574Z,93237.97
2022-08-28T12:56:17.145Z,93234.22
2022-08-28T12:58:46.276Z,93235.41
2022-08-28T13:01:23.913Z,93233.13
2022-08-28T13:03:55.336Z,93235.34
2022-08-28T13:06:33.067Z,93234.63
2022-08-28T13:09:04.476Z,93235.44
2022-08-28T13:11:38.870Z,93241.78
2022-08-28T13:14:08.235Z,93233.66
2022-08-28T13:16:45.638Z,93233.16
2022-08-28T13:19:29.383Z,93238.47
2022-08-28T13:22:01.976Z,93233.53
2022-08-28T13:24:35.669Z,93230.06
2022-08-28T13:27:12.525Z,93221.50
2022-08-28T13:29:57.380Z,93233.63
2022-08-28T13:32:28.400Z,93229.38
2022-08-28T13:35:08.358Z,93227.44
2022-08-28T13:37:48.244Z,93241.37
2022-08-28T13:40:53.265Z,93236.31
2022-08-28T13:43:11.225Z,93236.66
2022-08-28T13:45:44.105Z,93233.53
2022-08-28T13:48:14.666Z,93225.72
2022-08-28T13:50:51.687Z,93233.88
2022-08-28T13:53:20.935Z,93230.63
2022-08-28T13:55:50.618Z,93229.19
2022-08-28T13:58:18.581Z,93228.88
2022-08-28T14:00:48.784Z,93226.84
2022-08-28T14:03:35.872Z,93229.47
2022-08-28T14:06:13.294Z,93229.38
2022-08-28T14:08:43.576Z,93225.56
2022-08-28T14:11:13.391Z,93218.94
2022-08-28T14:13:46.872Z,93208.09
2022-08-28T14:16:25.191Z,93210.34
2022-08-28T14:18:53.966Z,93209.97
2022-08-28T14:21:24.707Z,93212.25
2022-08-28T14:23:55.548Z,93209.84
2022-08-28T14:26:23.350Z,93208.03
2022-08-28T14:28:50.978Z,93217.13
2022-08-28T14:31:18.791Z,93212.41
2022-08-28T14:33:47.198Z,93210.31
2022-08-28T14:36:16.624Z,93213.56
2022-08-28T14:38:44.562Z,93208.25
2022-08-28T14:41:14.934Z,93213.94
2022-08-28T14:43:42.668Z,93202.56
2022-08-28T14:46:19.840Z,93203.06
2022-08-28T14:48:48.282Z,93205.28
2022-08-28T14:51:16.371Z,93201.19
2022-08-28T14:53:44.966Z,93201.50
2022-08-28T14:56:12.645Z,93192.31
2022-08-28T14:58:40.087Z,93193.06
2022-08-28T15:01:07.832Z,93188.06
2022-08-28T15:03:36.317Z,93197.38
2022-08-28T15:06:09.863Z,93186.06
2022-08-28T15:08:38.368Z,93182.81
2022-08-28T15:11:08.039Z,93181.13
2022-08-28T15:13:35.656Z,93187.50
2022-08-28T15:16:15.482Z,93190.81
2022-08-28T15:18:45.690Z,93185.59
2022-08-28T15:21:24.832Z,93188.13
2022-08-28T15:23:57.935Z,93188.06
2022-08-28T15:26:27.351Z,93192.19
2022-08-28T15:28:58.419Z,93200.06
2022-08-28T15:31:26.496Z,93194.00
2022-08-28T15:33:54.889Z,93189.16
2022-08-28T15:36:22.309Z,93194.84
2022-08-28T15:39:08.723Z,93199.75
2022-08-28T15:41:38.163Z,93196.06
2022-08-28T15:44:06.076Z,93196.00
2022-08-28T15:46:35.202Z,93204.38
2022-08-28T15:49:05.219Z,93206.44
2022-08-28T15:51:36.197Z,93205.22
2022-08-28T15:54:03.693Z,93206.81
2022-08-28T15:56:31.122Z,93207.63
2022-08-28T15:58:58.786Z,93218.53
2022-08-28T16:01:26.281Z,93225.72
2022-08-28T16:03:54.061Z,93214.34
2022-08-28T16:06:22.627Z,93224.56
2022-08-28T16:08:50.370Z,93213.44
2022-08-28T16:11:20.845Z,93213.84
2022-08-28T16:13:48.727Z,93214.97
2022-08-28T16:16:17.057Z,93217.06
2022-08-28T16:18:45.159Z,93216.16
2022-08-28T16:21:14.154Z,93216.25
2022-08-28T16:23:42.165Z,93226.03
2022-08-28T16:26:10.281Z,93226.81
2022-08-28T16:28:38.578Z,93230.91
2022-08-28T16:31:07.540Z,93240.84
2022-08-28T16:33:46.820Z,93236.78
2022-08-28T16:36:15.869Z,93240.87
2022-08-28T16:38:46.755Z,93237.59
2022-08-28T16:41:22.064Z,93237.59
2022-08-28T16:43:50.565Z,93238.94
2022-08-28T16:46:22.317Z,93233.47
2022-08-28T16:48:49.773Z,93233.25
2022-08-28T16:51:20.969Z,93239.53
2022-08-28T16:53:48.450Z,93244.97
2022-08-28T16:56:17.855Z,93250.25
2022-08-28T16:58:45.717Z,93257.53
2022-08-28T17:01:13.882Z,93249.78
2022-08-28T17:03:42.067Z,93251.91
2022-08-28T17:06:30.678Z,93249.25
2022-08-28T17:08:58.459Z,93269.25
2022-08-28T17:11:27.257Z,93264.44
2022-08-28T17:13:55.567Z,93268.91
2022-08-28T17:16:24.283Z,93276.00
2022-08-28T17:18:52.940Z,93267.44
2022-08-28T17:21:41.233Z,93271.34
2022-08-28T17:24:12.707Z,93271.41
2022-08-28T17:26:41.548Z,93279.47
2022-08-28T17:29:09.550Z,93279.28
2022-08-28T17:31:37.420Z,93286.16
2022-08-28T17:34:07.403Z,93290.50
2022-08-28T17:36:37.544Z,93291.38
2022-08-28T17:39:08.681Z,93297.28
2022-08-28T17:41:37.081Z,93299.97
2022-08-28T17:44:05.280Z,93303.41
2022-08-28T17:46:37.700Z,93307.09
2022-08-28T17:49:08.014Z,93306.81
2022-08-28T17:51:42.643Z,93317.91
2022-08-28T17:54:13.482Z,93311.00
2022-08-28T17:56:41.868Z,93314.78
2022-08-28T17:59:11.993Z,93318.41
2022-08-28T18:01:41.204Z,93319.44
2022-08-28T18:04:09.252Z,93322.63
2022-08-28T18:06:37.380Z,93322.41
2022-08-28T18:09:06.325Z,93326.66
2022-08-28T18:11:34.442Z,93330.25
2022-08-28T18:14:01.892Z,93336.03
2022-08-28T18:16:32.553Z,93334.19
2022-08-28T18:19:02.046Z,93347.25
2022-08-28T18:21:30.575Z,93344.53
2022-08-28T18:23:58.281Z,93347.06
2022-08-28T18:26:26.483Z,93351.16
2022-08-28T18:28:54.105Z,93345.38
2022-08-28T18:31:22.291Z,93345.69
2022-08-28T18:33:50.440Z,93357.28
2022-08-28T18:36:18.127Z,93359.97
2022-08-28T18:38:47.420Z,93367.31
2022-08-28T18:41:16.067Z,93362.00
2022-08-28T18:43:43.634Z,93367.09
2022-08-28T18:46:12.416Z,93362.28
2022-08-28T18:48:42.654Z,93362.28
2022-08-28T18:51:12.427Z,93364.50
2022-08-28T18:53:43.450Z,93372.13
2022-08-28T18:56:12.476Z,93371.88
2022-08-28T18:58:43.247Z,93375.59
2022-08-28T19:01:10.879Z,93375.91
2022-08-28T19:03:38.855Z,93383.56
2022-08-28T19:06:06.819Z,93384.69
2022-08-28T19:08:37.940Z,93380.81
2022-08-28T19:11:10.715Z,93393.00
2022-08-28T19:13:38.330Z,93390.13
2022-08-28T19:16:06.472Z,93401.06
2022-08-28T19:18:34.212Z,93400.19
2022-08-28T19:21:10.728Z,93403.56
2022-08-28T19:23:53.864Z,93415.44
2022-08-28T19:38:30.917Z,93421.94
2022-08-28T19:45:26.264Z,93436.16
2022-08-28T19:48:10.310Z,93437.03
2022-08-28T19:56:56.869Z,93438.59
2022-08-28T19:59:27.211Z,93432.84
2022-08-28T20:01:57.318Z,93430.00
2022-08-28T20:07:06.967Z,93446.47
2022-08-28T20:09:48.122Z,93443.28
2022-08-28T20:15:01.374Z,93443.03
2022-08-28T20:17:32.093Z,93450.03
2022-08-28T20:20:03.576Z,93455.00
2022-08-28T20:22:32.152Z,93459.81
2022-08-28T20:25:00.463Z,93462.34
2022-08-28T20:27:28.098Z,93461.59
2022-08-28T20:29:55.511Z,93471.81
2022-08-28T20:32:23.234Z,93477.53
2022-08-28T20:34:50.667Z,93475.06
2022-08-28T20:37:19.651Z,93479.41
2022-08-28T20:39:47.527Z,93479.78
2022-08-28T20:42:14.973Z,93480.88
2022-08-28T20:44:42.560Z,93468.28
2022-08-28T20:47:10.299Z,93469.97
2022-08-28T20:49:39.297Z,93468.87
2022-08-28T20:52:07.081Z,93471.53
2022-08-28T20:54:38.777Z,93475.56
2022-08-28T20:57:11.889Z,93472.22
2022-08-28T20:59:42.611Z,93476.16
2022-08-28T21:02:14.744Z,93473.59
2022-08-28T21:04:44.347Z,93467.78
2022-08-28T21:07:13.688Z,93470.53
2022-08-28T21:10:05.939Z,93469.87
2022-08-28T21:12:28.997Z,93470.63
2022-08-28T21:14:56.576Z,93474.19
2022-08-28T21:17:29.544Z,93459.69
2022-08-28T21:20:04.289Z,93464.91
2022-08-28T21:22:34.577Z,93463.13
2022-08-28T21:25:08.429Z,93467.25
2022-08-28T21:27:38.680Z,93466.66
2022-08-28T21:30:07.645Z,93471.81
2022-08-28T21:32:35.696Z,93466.75
2022-08-28T21:35:05.285Z,93475.88
2022-08-28T21:37:36.650Z,93474.06
2022-08-28T21:40:08.584Z,93466.47
2022-08-28T21:42:36.933Z,93474.81
2022-08-28T21:45:11.240Z,93464.53
2022-08-28T21:47:41.251Z,93475.28
2022-08-28T21:50:09.166Z,93471.81
2022-08-28T21:52:36.628Z,93476.44
2022-08-28T21:55:08.369Z,93469.87
2022-08-28T21:57:36.526Z,93472.84
2022-08-28T22:00:10.486Z,93475.38
2022-08-28T22:02:37.804Z,93480.97
2022-08-28T22:05:05.798Z,93476.16
2022-08-28T22:07:33.413Z,93473.94
2022-08-28T22:10:00.925Z,93473.94
2022-08-28T22:12:28.577Z,93484.00
2022-08-28T22:14:58.394Z,93473.59
2022-08-28T22:17:27.004Z,93467.63
2022-08-28T22:19:57.985Z,93474.09
2022-08-28T22:22:43.952Z,93478.03
2022-08-28T22:25:11.625Z,93479.13
2022-08-28T22:27:39.229Z,93485.50
2022-08-28T22:30:07.096Z,93483.81
2022-08-28T22:32:34.789Z,93472.81
2022-08-28T22:35:02.241Z,93478.38
2022-08-28T22:37:30.233Z,93483.44
2022-08-28T22:39:59.777Z,93481.09
2022-08-28T22:42:27.056Z,93479.41
2022-08-28T22:44:54.842Z,93476.44
2022-08-28T22:47:23.031Z,93487.38
2022-08-28T22:49:50.321Z,93486.47
2022-08-28T22:52:17.739Z,93483.44
2022-08-28T22:54:45.786Z,93487.00
2022-08-28T22:57:14.572Z,93492.50
2022-08-28T22:59:42.335Z,93488.91
2022-08-28T23:02:12.214Z,93490.19
2022-08-28T23:04:39.641Z,93490.13
2022-08-28T23:07:07.030Z,93485.63
2022-08-28T23:09:36.005Z,93485.94
2022-08-28T23:12:07.982Z,93483.72
2022-08-28T23:14:35.848Z,93487.00
2022-08-28T23:17:04.147Z,93493.41
2022-08-28T23:19:33.052Z,93487.22
2022-08-28T23:22:01.223Z,93487.56
2022-08-28T23:24:28.886Z,93483.47
2022-08-28T23:26:56.235Z,93484.72
2022-08-28T23:29:24.134Z,93483.41
2022-08-28T23:34:34.354Z,93494.13
2022-08-28T23:37:03.080Z,93498.91
2022-08-28T23:39:30.972Z,93492.81
2022-08-28T23:41:58.636Z,93496.00
2022-08-28T23:44:25.986Z,93489.81
2022-08-28T23:46:53.994Z,93491.75
2022-08-28T23:49:26.712Z,93488.81
2022-08-28T23:51:54.346Z,93491.59
2022-08-28T23:54:22.037Z,93485.66
2022-08-28T23:56:49.454Z,93486.81
2022-08-28T23:59:21.280Z,93488.16
